首页
METAR-TAF:

METAR-TAF

机场 :

Marham, 英格兰

纬度: 52-39N, 经度: 000-34E, 海拔: 23米

当前天气观测

该预报发布于39分钟前的13:50 UTC
风速11节,风向西北
温度 7°C
湿度 70%
气压 1027 hPa
能见度10公里或以上

METAR: EGYM 181350Z AUTO 31011KT 9999 NCD 07/02 Q1027

时间: 14:29 (14:29 UTC)

预报

该预报发布于27小时和45分钟前的10:44 UTC
预报有效从17日的 12点(UTC)到 17日的 21点(UTC)
风速12节,风向南转西南
能见度10公里或以上
散云层高于3000英尺
短暂存在
从 17日的 12点(UTC)到 17日的 18点(UTC)
能見度: 5000
散云层高于1200英尺
小阵雨
几率 30% :
短暂存在
从 17日的 13点(UTC)到 17日的 17点(UTC)
风速15节,风向西转西北,有时为25节阵风
能見度: 3000
散云层高于600英尺
多云层高于1400英尺, 积雨云.
阵雨

TAF: EGYM 171044Z 1712/1721 20012KT 9999 SCT030 TEMPO 1712/1718 5000 -SHRA SCT012 PROB30 TEMPO 1713/1717 29015G25KT 3000 SHRA SCT006 BKN014CB

超过4000个机场的气象观测和天气预报(METAR&TAF报告)。

可查询的气象台以黄色和红色小点在地图上表示。

将鼠标移到小点上方,可查看气象台名称。

然后点击查看天气观测和预报。

如需切换地图:点击带黑十字的绿色按钮放大地图;点击带横线的绿色按钮缩小地图;或者点击绿色箭头查看邻近地区的地图。


METAR-TAF: